Thailine 9 — 9WGP9 — position and weather

sailwx.info

Track history (hours):
 
Tides and Currents Weather Stations Pressure Air Temp Water Temp Dewpoint Dewpoint Depression Visibility Wind Speed Wind Dir Waves Ship Positions

Thailine 9

Last reported at 2015-Feb-09 11:05 UTC. Time now 2015-Mar-06 12:38 UTC.
Position N 33°40' E 129°54'.
Warning: this ship's position is 25 days out of date.

Length 113 m; draft 5.1 m.

Type: Cargo ship. MMSI: 533791000.

Date/timePositionNaut miles runAvg speedWind from/ knotsBaromVisibWave heightAir tempDewpointWater temp
2015-Feb-09 11:05N 33°40' E 129°54'712.3
2015-Feb-09 10:33N 33°43' E 130°02'1110.9
2015-Feb-09 09:33N 33°43' E 130°15'10 9.7
2015-Feb-09 08:33N 33°37' E 130°24'1 0.6
2015-Feb-09 07:31N 33°37' E 130°24'0 0.0
2015-Feb-09 06:31N 33°37' E 130°24'0 0.0
2015-Feb-09 05:28N 33°37' E 130°24'0 0.0
2015-Feb-09 04:29N 33°37' E 130°24'0 0.0
2015-Feb-09 03:13N 33°37' E 130°24'0 0.0
2015-Feb-09 02:11N 33°37' E 130°24'0 0.0
2015-Feb-09 01:31N 33°37' E 130°24'0 0.0
2015-Feb-09 00:13N 33°37' E 130°24'0 0.0
2015-Feb-08 23:31N 33°37' E 130°24'0 0.0
2015-Feb-08 22:33N 33°37' E 130°24'2 2.2
2015-Feb-08 21:33N 33°38' E 130°22'2 1.4
2015-Feb-08 20:26N 33°38' E 130°20'0 0.1
2015-Feb-08 19:26N 33°38' E 130°20'0 0.1
2015-Feb-08 18:29N 33°38' E 130°20'0 0.0
2015-Feb-08 17:29N 33°38' E 130°20'0 0.1
2015-Feb-08 16:32N 33°38' E 130°20'0 0.0
2015-Feb-08 15:23N 33°38' E 130°20'0 0.0
2015-Feb-08 14:32N 33°38' E 130°20'0 0.1
2015-Feb-08 13:32N 33°38' E 130°20'0 0.1
2015-Feb-08 12:32N 33°38' E 130°20'0 0.1
2015-Feb-08 11:32N 33°38' E 130°20'0 0.0
2015-Feb-08 10:23N 33°38' E 130°20'0 0.1
2015-Feb-08 09:32N 33°38' E 130°20'0 0.0
2015-Feb-08 08:33N 33°38' E 130°20'0 0.0
2015-Feb-08 04:23N 33°38' E 130°20'0 0.0
2015-Feb-08 03:33N 33°38' E 130°20'0 0.0
2015-Feb-08 02:29N 33°38' E 130°20'0 0.0
2015-Feb-08 01:32N 33°38' E 130°20'0 0.0
2015-Feb-08 00:33N 33°38' E 130°20'0 0.0
2015-Feb-07 23:29N 33°38' E 130°20'0 0.0
2015-Feb-07 22:23N 33°38' E 130°20'0 0.0
2015-Feb-07 21:23N 33°38' E 130°20'0 0.0
2015-Feb-07 20:32N 33°38' E 130°20'0 0.0
2015-Feb-07 19:18N 33°38' E 130°20'0 0.0
2015-Feb-07 18:30N 33°38' E 130°20'0 0.1
2015-Feb-07 17:32N 33°38' E 130°20'0 0.0
2015-Feb-07 16:29N 33°38' E 130°20'0 0.1
2015-Feb-07 15:33N 33°38' E 130°20'0 0.0
2015-Feb-07 14:27N 33°38' E 130°20'0 0.0
2015-Feb-07 13:32N 33°38' E 130°20'0 0.0
2015-Feb-07 12:33N 33°38' E 130°20'0 0.0
2015-Feb-07 11:32N 33°38' E 130°20'0 0.0
2015-Feb-07 10:32N 33°38' E 130°20'0 0.0
2015-Feb-07 09:32N 33°38' E 130°20'0 0.0
2015-Feb-07 08:32N 33°38' E 130°20'0 0.1
2015-Feb-07 07:32N 33°38' E 130°20'7 6.7
2015-Feb-07 06:33N 33°44' E 130°17'46510.6
2015-Feb-05 10:33N 34°59' E 139°32'1413.6
2015-Feb-05 09:33N 35°08' E 139°45'1312.8
2015-Feb-05 08:33N 35°21' E 139°42'7 6.7
2015-Feb-05 07:33N 35°27' E 139°41'0 0.0
2015-Feb-05 06:33N 35°27' E 139°41'0 0.0
2015-Feb-05 05:33N 35°27' E 139°41'0 0.0
2015-Feb-05 04:33N 35°27' E 139°41'0 0.0
2015-Feb-05 03:33N 35°27' E 139°41'0 0.0
2015-Feb-05 02:33N 35°27' E 139°41'0 0.0
2015-Feb-05 01:33N 35°27' E 139°41'0 0.0
2015-Feb-05 00:33N 35°27' E 139°41'0 0.0
2015-Feb-04 23:33N 35°27' E 139°41'0 0.0
2015-Feb-04 22:33N 35°27' E 139°41'1 0.6
2015-Feb-04 21:34N 35°27' E 139°41'1 1.2
2015-Feb-04 20:33N 35°26' E 139°42'0 0.1
2015-Feb-04 19:33N 35°26' E 139°42'0 0.0
2015-Feb-04 18:33N 35°26' E 139°42'0 0.0
2015-Feb-04 17:33N 35°26' E 139°42'0 0.0
2015-Feb-04 16:33N 35°26' E 139°42'0 0.0
2015-Feb-04 15:33N 35°26' E 139°42'0 0.0
2015-Feb-04 14:33N 35°26' E 139°42'0 0.0
2015-Feb-04 13:33N 35°26' E 139°42'0 0.0
2015-Feb-04 12:33N 35°26' E 139°42'0 0.1
2015-Feb-04 11:33N 35°26' E 139°42'0 0.0
2015-Feb-04 10:33N 35°26' E 139°42'0 0.0
2015-Feb-04 09:33N 35°26' E 139°42'0 0.0
2015-Feb-04 08:33N 35°26' E 139°42'0 0.1
2015-Feb-04 07:30N 35°26' E 139°42'0 0.0
2015-Feb-04 06:33N 35°26' E 139°42'4 3.8
2015-Feb-04 05:33N 35°22' E 139°43'1312.4
2015-Feb-04 04:33N 35°10' E 139°47'1313.1
2015-Feb-04 03:33N 34°58' E 139°43'9 7.9
2015-Feb-04 02:25N 34°49' E 139°44'1 1.0
2015-Feb-04 01:20N 34°49' E 139°45'  
Track history (hours):
 
Tides and Currents Weather Stations Pressure Air Temp Water Temp Dewpoint Dewpoint Depression Visibility Wind Speed Wind Dir Waves Ship Positions

Thailine 9

Last reported at 2015-Feb-09 11:05 UTC. Time now 2015-Mar-06 12:38 UTC.
Position N 33°40' E 129°54'.
Warning: this ship's position is 25 days out of date.

Length 113 m; draft 5.1 m.

Type: Cargo ship. MMSI: 533791000.

Date/timePositionNaut miles runAvg speedWind from/ knotsBaromVisibWave heightAir tempDewpointWater temp
2015-Feb-09 11:05N 33°40' E 129°54'712.3
2015-Feb-09 10:33N 33°43' E 130°02'1110.9
2015-Feb-09 09:33N 33°43' E 130°15'10 9.7
2015-Feb-09 08:33N 33°37' E 130°24'1 0.6
2015-Feb-09 07:31N 33°37' E 130°24'0 0.0
2015-Feb-09 06:31N 33°37' E 130°24'0 0.0
2015-Feb-09 05:28N 33°37' E 130°24'0 0.0
2015-Feb-09 04:29N 33°37' E 130°24'0 0.0
2015-Feb-09 03:13N 33°37' E 130°24'0 0.0
2015-Feb-09 02:11N 33°37' E 130°24'0 0.0
2015-Feb-09 01:31N 33°37' E 130°24'0 0.0
2015-Feb-09 00:13N 33°37' E 130°24'0 0.0
2015-Feb-08 23:31N 33°37' E 130°24'0 0.0
2015-Feb-08 22:33N 33°37' E 130°24'2 2.2
2015-Feb-08 21:33N 33°38' E 130°22'2 1.4
2015-Feb-08 20:26N 33°38' E 130°20'0 0.1
2015-Feb-08 19:26N 33°38' E 130°20'0 0.1
2015-Feb-08 18:29N 33°38' E 130°20'0 0.0
2015-Feb-08 17:29N 33°38' E 130°20'0 0.1
2015-Feb-08 16:32N 33°38' E 130°20'0 0.0
2015-Feb-08 15:23N 33°38' E 130°20'0 0.0
2015-Feb-08 14:32N 33°38' E 130°20'0 0.1
2015-Feb-08 13:32N 33°38' E 130°20'0 0.1
2015-Feb-08 12:32N 33°38' E 130°20'0 0.1
2015-Feb-08 11:32N 33°38' E 130°20'0 0.0
2015-Feb-08 10:23N 33°38' E 130°20'0 0.1
2015-Feb-08 09:32N 33°38' E 130°20'0 0.0
2015-Feb-08 08:33N 33°38' E 130°20'0 0.0
2015-Feb-08 04:23N 33°38' E 130°20'0 0.0
2015-Feb-08 03:33N 33°38' E 130°20'0 0.0
2015-Feb-08 02:29N 33°38' E 130°20'0 0.0
2015-Feb-08 01:32N 33°38' E 130°20'0 0.0
2015-Feb-08 00:33N 33°38' E 130°20'0 0.0
2015-Feb-07 23:29N 33°38' E 130°20'0 0.0
2015-Feb-07 22:23N 33°38' E 130°20'0 0.0
2015-Feb-07 21:23N 33°38' E 130°20'0 0.0
2015-Feb-07 20:32N 33°38' E 130°20'0 0.0
2015-Feb-07 19:18N 33°38' E 130°20'0 0.0
2015-Feb-07 18:30N 33°38' E 130°20'0 0.1
2015-Feb-07 17:32N 33°38' E 130°20'0 0.0
2015-Feb-07 16:29N 33°38' E 130°20'0 0.1
2015-Feb-07 15:33N 33°38' E 130°20'0 0.0
2015-Feb-07 14:27N 33°38' E 130°20'0 0.0
2015-Feb-07 13:32N 33°38' E 130°20'0 0.0
2015-Feb-07 12:33N 33°38' E 130°20'0 0.0
2015-Feb-07 11:32N 33°38' E 130°20'0 0.0
2015-Feb-07 10:32N 33°38' E 130°20'0 0.0
2015-Feb-07 09:32N 33°38' E 130°20'0 0.0
2015-Feb-07 08:32N 33°38' E 130°20'0 0.1
2015-Feb-07 07:32N 33°38' E 130°20'7 6.7
2015-Feb-07 06:33N 33°44' E 130°17'46510.6
2015-Feb-05 10:33N 34°59' E 139°32'1413.6
2015-Feb-05 09:33N 35°08' E 139°45'1312.8
2015-Feb-05 08:33N 35°21' E 139°42'7 6.7
2015-Feb-05 07:33N 35°27' E 139°41'0 0.0
2015-Feb-05 06:33N 35°27' E 139°41'0 0.0
2015-Feb-05 05:33N 35°27' E 139°41'0 0.0
2015-Feb-05 04:33N 35°27' E 139°41'0 0.0
2015-Feb-05 03:33N 35°27' E 139°41'0 0.0
2015-Feb-05 02:33N 35°27' E 139°41'0 0.0
2015-Feb-05 01:33N 35°27' E 139°41'0 0.0
2015-Feb-05 00:33N 35°27' E 139°41'0 0.0
2015-Feb-04 23:33N 35°27' E 139°41'0 0.0
2015-Feb-04 22:33N 35°27' E 139°41'1 0.6
2015-Feb-04 21:34N 35°27' E 139°41'1 1.2
2015-Feb-04 20:33N 35°26' E 139°42'0 0.1
2015-Feb-04 19:33N 35°26' E 139°42'0 0.0
2015-Feb-04 18:33N 35°26' E 139°42'0 0.0
2015-Feb-04 17:33N 35°26' E 139°42'0 0.0
2015-Feb-04 16:33N 35°26' E 139°42'0 0.0
2015-Feb-04 15:33N 35°26' E 139°42'0 0.0
2015-Feb-04 14:33N 35°26' E 139°42'0 0.0
2015-Feb-04 13:33N 35°26' E 139°42'0 0.0
2015-Feb-04 12:33N 35°26' E 139°42'0 0.1
2015-Feb-04 11:33N 35°26' E 139°42'0 0.0
2015-Feb-04 10:33N 35°26' E 139°42'0 0.0
2015-Feb-04 09:33N 35°26' E 139°42'0 0.0
2015-Feb-04 08:33N 35°26' E 139°42'0 0.1
2015-Feb-04 07:30N 35°26' E 139°42'0 0.0
2015-Feb-04 06:33N 35°26' E 139°42'4 3.8
2015-Feb-04 05:33N 35°22' E 139°43'1312.4
2015-Feb-04 04:33N 35°10' E 139°47'1313.1
2015-Feb-04 03:33N 34°58' E 139°43'9 7.9
2015-Feb-04 02:25N 34°49' E 139°44'1 1.0
2015-Feb-04 01:20N 34°49' E 139°45'  

Dump ship's entire track history